createdAt,value
2018-05-11T00:00:28.201Z,93.32
2018-05-11T00:01:28.192Z,93.41
2018-05-11T00:02:28.183Z,93.32
2018-05-11T00:03:28.178Z,93.51
2018-05-11T00:04:28.178Z,93.32
2018-05-11T00:05:28.176Z,93.41
2018-05-11T00:06:28.164Z,93.41
2018-05-11T00:07:28.160Z,93.51
2018-05-11T00:08:28.155Z,93.79
2018-05-11T00:09:28.149Z,93.51
2018-05-11T00:10:28.151Z,93.60
2018-05-11T00:11:28.148Z,93.32
2018-05-11T00:12:28.140Z,93.41
2018-05-11T00:13:28.135Z,93.27
2018-05-11T00:14:28.128Z,93.27
2018-05-11T00:15:28.122Z,93.37
2018-05-11T00:16:28.117Z,92.98
2018-05-11T00:17:28.111Z,93.55
2018-05-11T00:18:28.112Z,93.93
2018-05-11T00:19:28.107Z,92.98
2018-05-11T00:20:28.097Z,93.17
2018-05-11T00:21:28.097Z,93.27
2018-05-11T00:22:28.092Z,93.27
2018-05-11T00:23:28.176Z,92.98
2018-05-11T00:24:28.082Z,94.03
2018-05-11T00:25:28.076Z,93.55
2018-05-11T00:26:28.068Z,94.03
2018-05-11T00:27:28.062Z,94.13
2018-05-11T00:28:28.058Z,94.32
2018-05-11T00:29:28.052Z,94.51
2018-05-11T00:30:28.053Z,94.41
2018-05-11T00:31:28.046Z,94.79
2018-05-11T00:32:28.042Z,94.79
2018-05-11T00:33:28.038Z,94.37
2018-05-11T00:34:28.028Z,94.56
2018-05-11T00:35:28.026Z,95.32
2018-05-11T00:36:28.023Z,94.65
2018-05-11T00:37:28.017Z,94.46
2018-05-11T00:38:28.008Z,94.74
2018-05-11T00:39:28.002Z,95.12
2018-05-11T00:40:27.997Z,95.12
2018-05-11T00:41:27.991Z,94.74
2018-05-11T00:42:27.995Z,94.56
2018-05-11T00:43:27.986Z,94.93
2018-05-11T00:44:27.981Z,95.41
2018-05-11T00:45:27.976Z,95.22
2018-05-11T00:46:27.966Z,96.08
2018-05-11T00:47:27.961Z,95.89
2018-05-11T00:48:27.956Z,95.98
2018-05-11T00:49:27.952Z,96.46
2018-05-11T00:50:27.951Z,96.46
2018-05-11T00:51:27.947Z,96.46
2018-05-11T00:52:27.938Z,96.36
2018-05-11T00:53:27.930Z,96.55
2018-05-11T00:54:27.930Z,96.46
2018-05-11T00:55:27.925Z,96.27
2018-05-11T00:56:27.919Z,96.46
2018-05-11T00:57:27.913Z,96.36
2018-05-11T00:58:27.905Z,96.46
2018-05-11T00:59:27.902Z,95.51
2018-05-11T01:00:27.894Z,95.79
2018-05-11T01:01:27.888Z,95.70
2018-05-11T01:02:27.887Z,95.70
2018-05-11T01:03:27.883Z,95.70
2018-05-11T01:04:27.879Z,96.27
2018-05-11T01:05:27.872Z,96.55
2018-05-11T01:06:27.862Z,96.46
2018-05-11T01:07:27.857Z,96.32
2018-05-11T01:08:27.859Z,96.27
2018-05-11T01:09:27.850Z,96.17
2018-05-11T01:10:27.840Z,96.27
2018-05-11T01:11:27.836Z,96.27
2018-05-11T01:12:27.831Z,96.27
2018-05-11T01:13:27.824Z,96.36
2018-05-11T01:14:27.824Z,96.46
2018-05-11T01:15:27.824Z,96.55
2018-05-11T01:16:27.815Z,96.46
2018-05-11T01:17:27.808Z,96.46
2018-05-11T01:18:27.800Z,96.46
2018-05-11T01:19:27.794Z,96.27
2018-05-11T01:20:27.789Z,95.98
2018-05-11T01:21:27.782Z,96.27
2018-05-11T01:22:27.781Z,96.36
2018-05-11T01:23:27.782Z,96.46
2018-05-11T01:24:27.767Z,96.46
2018-05-11T01:25:27.760Z,96.65
2018-05-11T01:26:27.760Z,96.65
2018-05-11T01:27:27.755Z,95.70
2018-05-11T01:28:27.751Z,96.46
2018-05-11T01:29:27.745Z,96.27
2018-05-11T01:30:27.734Z,96.27
2018-05-11T01:31:27.729Z,95.98
2018-05-11T01:32:27.724Z,96.27
2018-05-11T01:33:27.717Z,96.46
2018-05-11T01:34:27.718Z,95.70
2018-05-11T01:35:27.712Z,95.70
2018-05-11T01:36:27.706Z,95.89
2018-05-11T01:37:27.702Z,95.89
2018-05-11T01:38:27.691Z,95.70
2018-05-11T01:39:27.685Z,95.89
2018-05-11T01:40:27.685Z,95.79
2018-05-11T01:41:27.679Z,95.70
2018-05-11T01:42:27.669Z,96.36
2018-05-11T01:43:27.664Z,96.27
2018-05-11T01:44:27.660Z,96.17
2018-05-11T01:45:27.654Z,96.27
2018-05-11T01:46:27.651Z,95.98
2018-05-11T01:47:27.649Z,96.17
2018-05-11T01:48:27.642Z,96.27
2018-05-11T01:49:27.636Z,96.22
2018-05-11T01:50:27.625Z,96.27
2018-05-11T01:51:27.620Z,96.27
2018-05-11T01:52:27.614Z,96.55
2018-05-11T01:53:27.607Z,96.27
2018-05-11T01:54:27.607Z,96.36
2018-05-11T01:55:27.601Z,96.84
2018-05-11T01:56:27.592Z,96.55
2018-05-11T01:57:27.585Z,96.75
2018-05-11T01:58:27.635Z,96.79
2018-05-11T01:59:27.579Z,96.46
2018-05-11T02:00:27.577Z,96.65
2018-05-11T02:01:27.569Z,96.31
2018-05-11T02:02:27.560Z,96.41
2018-05-11T02:03:27.552Z,95.84
2018-05-11T02:04:27.550Z,96.51
2018-05-11T02:05:27.541Z,96.22
2018-05-11T02:06:27.541Z,96.31
2018-05-11T02:07:27.535Z,96.22
2018-05-11T02:08:27.529Z,96.22
2018-05-11T02:09:27.522Z,96.12
2018-05-11T02:10:27.512Z,96.41
2018-05-11T02:11:27.507Z,96.12
2018-05-11T02:12:27.506Z,96.31
2018-05-11T02:13:27.499Z,96.22
2018-05-11T02:14:27.489Z,95.94
2018-05-11T02:15:27.485Z,96.22
2018-05-11T02:16:27.479Z,96.22
2018-05-11T02:17:27.472Z,96.22
2018-05-11T02:18:27.504Z,96.22
2018-05-11T02:19:27.470Z,96.12
2018-05-11T02:20:27.459Z,96.51
2018-05-11T02:21:27.454Z,96.31
2018-05-11T02:22:27.443Z,96.51
2018-05-11T02:23:27.438Z,97.27
2018-05-11T02:24:27.435Z,97.08
2018-05-11T02:25:27.425Z,97.27
2018-05-11T02:26:27.425Z,96.60
2018-05-11T02:27:27.419Z,96.60
2018-05-11T02:28:27.409Z,96.60
2018-05-11T02:29:27.402Z,96.60
2018-05-11T02:30:27.406Z,96.60
2018-05-11T02:31:27.400Z,96.41
2018-05-11T02:32:27.391Z,96.31
2018-05-11T02:33:27.382Z,96.60
2018-05-11T02:34:27.373Z,96.41
2018-05-11T02:35:27.368Z,96.79
2018-05-11T02:36:27.363Z,96.31
2018-05-11T02:37:27.355Z,96.41
2018-05-11T02:38:27.358Z,96.31
2018-05-11T02:39:27.349Z,96.55
2018-05-11T02:40:27.344Z,96.31
2018-05-11T02:41:27.338Z,96.51
2018-05-11T02:42:27.327Z,96.65
2018-05-11T02:43:27.321Z,96.65
2018-05-11T02:44:27.320Z,97.03
2018-05-11T02:45:27.314Z,97.22
2018-05-11T02:46:27.303Z,97.03
2018-05-11T02:47:27.302Z,97.41
2018-05-11T02:48:27.291Z,97.41
2018-05-11T02:49:27.285Z,97.93
2018-05-11T02:50:27.283Z,97.60
2018-05-11T02:51:27.277Z,97.98
2018-05-11T02:52:27.271Z,98.03
2018-05-11T02:53:27.265Z,98.32
2018-05-11T02:54:27.254Z,98.22
2018-05-11T02:55:27.248Z,98.22
2018-05-11T02:56:27.243Z,98.41
2018-05-11T02:57:27.239Z,98.13
2018-05-11T02:58:27.238Z,98.13
2018-05-11T02:59:27.229Z,98.41
2018-05-11T03:00:27.219Z,97.55
2018-05-11T03:01:27.213Z,98.13
2018-05-11T03:02:27.212Z,98.03
2018-05-11T03:03:27.206Z,98.03
2018-05-11T03:04:27.200Z,97.55
2018-05-11T03:05:27.192Z,97.36
2018-05-11T03:06:27.183Z,97.22
2018-05-11T03:07:27.175Z,96.84
2018-05-11T03:08:27.171Z,96.36
2018-05-11T03:09:27.164Z,96.46
2018-05-11T03:10:27.253Z,96.26
2018-05-11T03:11:27.156Z,96.36
2018-05-11T03:12:27.150Z,96.26
2018-05-11T03:13:27.215Z,96.36
2018-05-11T03:14:27.133Z,96.74
2018-05-11T03:15:27.128Z,96.55
2018-05-11T03:16:27.127Z,96.55
2018-05-11T03:17:27.120Z,96.55
2018-05-11T03:18:27.308Z,97.31
2018-05-11T03:19:27.103Z,97.22
2018-05-11T03:20:27.097Z,96.36
2018-05-11T03:21:27.090Z,97.22
2018-05-11T03:22:27.090Z,96.46
2018-05-11T03:23:27.083Z,97.13
2018-05-11T03:24:27.076Z,96.74
2018-05-11T03:25:27.069Z,97.22
2018-05-11T03:26:27.059Z,97.41
2018-05-11T03:27:27.053Z,97.88
2018-05-11T03:28:27.048Z,97.88
2018-05-11T03:29:27.040Z,97.98
2018-05-11T03:30:27.041Z,97.79
2018-05-11T03:31:27.036Z,97.98
2018-05-11T03:32:27.023Z,97.79
2018-05-11T03:33:27.016Z,97.88
2018-05-11T03:34:27.014Z,97.41
2018-05-11T03:35:27.008Z,97.60
2018-05-11T03:36:27.003Z,96.84
2018-05-11T03:37:26.998Z,97.31
2018-05-11T03:38:26.984Z,97.41
2018-05-11T03:39:26.980Z,97.50
2018-05-11T03:40:26.973Z,97.69
2018-05-11T03:41:26.965Z,97.50
2018-05-11T03:42:26.965Z,97.60
2018-05-11T03:43:26.957Z,97.98
2018-05-11T03:44:26.952Z,97.98
2018-05-11T03:45:26.945Z,98.46
2018-05-11T03:46:26.935Z,98.17
2018-05-11T03:47:26.927Z,99.12
2018-05-11T03:48:26.928Z,98.17
2018-05-11T03:49:26.919Z,98.27
2018-05-11T03:50:26.910Z,98.65
2018-05-11T03:51:26.903Z,98.36
2018-05-11T03:52:26.896Z,98.74
2018-05-11T03:53:26.888Z,98.83
2018-05-11T03:54:26.886Z,98.93
2018-05-11T03:55:26.880Z,98.65
2018-05-11T03:56:26.875Z,98.27
2018-05-11T03:57:26.868Z,98.08
2018-05-11T03:58:26.856Z,97.88
2018-05-11T03:59:26.853Z,97.98
2018-05-11T04:00:26.844Z,98.36
2018-05-11T04:01:26.837Z,97.88
2018-05-11T04:02:26.836Z,97.98
2018-05-11T04:03:26.831Z,97.88
2018-05-11T04:04:26.823Z,98.17
2018-05-11T04:05:26.813Z,97.88
2018-05-11T04:06:26.811Z,97.50
2018-05-11T04:07:26.806Z,97.41
2018-05-11T04:08:26.797Z,97.50
2018-05-11T04:09:26.790Z,97.13
2018-05-11T04:10:26.779Z,97.03
2018-05-11T04:11:26.774Z,96.26
2018-05-11T04:12:26.769Z,96.17
2018-05-11T04:13:26.763Z,96.26
2018-05-11T04:14:26.758Z,96.94
2018-05-11T04:15:26.752Z,96.17
2018-05-11T04:16:26.748Z,96.65
2018-05-11T04:17:26.740Z,96.17
2018-05-11T04:18:26.730Z,96.17
2018-05-11T04:19:26.723Z,96.55
2018-05-11T04:20:26.722Z,96.46
2018-05-11T04:21:26.714Z,96.55
2018-05-11T04:22:26.704Z,97.22
2018-05-11T04:23:26.698Z,97.22
2018-05-11T04:24:26.692Z,97.03
2018-05-11T04:25:26.684Z,96.65
2018-05-11T04:26:26.686Z,96.94
2018-05-11T04:27:26.683Z,97.31
2018-05-11T04:28:26.672Z,96.51
2018-05-11T04:29:26.664Z,96.70
2018-05-11T04:30:26.655Z,96.31
2018-05-11T04:31:26.648Z,96.60
2018-05-11T04:32:26.642Z,96.31
2018-05-11T04:33:26.635Z,96.31
2018-05-11T04:34:26.635Z,96.60
2018-05-11T04:35:26.628Z,95.65
2018-05-11T04:36:26.623Z,95.75
2018-05-11T04:37:26.610Z,95.94
2018-05-11T04:38:26.609Z,96.41
2018-05-11T04:39:26.603Z,96.31
2018-05-11T04:40:26.598Z,96.31
2018-05-11T04:41:26.594Z,96.22
2018-05-11T04:42:26.585Z,95.75
2018-05-11T04:43:26.575Z,96.03
2018-05-11T04:44:26.569Z,95.89
2018-05-11T04:45:26.562Z,95.79
2018-05-11T04:46:26.563Z,95.51
2018-05-11T04:47:26.557Z,94.65
2018-05-11T04:48:26.551Z,94.37
2018-05-11T04:49:26.545Z,93.74
2018-05-11T04:50:26.541Z,93.08
2018-05-11T04:51:26.531Z,92.84
2018-05-11T04:52:26.529Z,92.27
2018-05-11T04:53:26.526Z,91.60
2018-05-11T04:54:26.515Z,91.27
2018-05-11T04:55:26.510Z,90.22
2018-05-11T04:56:26.508Z,89.26
2018-05-11T04:57:26.501Z,88.07
2018-05-11T04:58:26.516Z,87.21
2018-05-11T04:59:26.499Z,85.63
2018-05-11T05:00:26.495Z,84.23
2018-05-11T05:01:26.490Z,82.81
2018-05-11T05:02:26.482Z,82.56
2018-05-11T05:03:26.477Z,82.08
2018-05-11T05:04:26.474Z,81.16
2018-05-11T05:05:26.470Z,79.64
2018-05-11T05:06:26.471Z,79.64
2018-05-11T05:07:26.468Z,78.97
2018-05-11T05:08:26.461Z,78.81
2018-05-11T05:09:26.458Z,78.34
2018-05-11T05:10:26.460Z,77.76
2018-05-11T05:11:26.458Z,77.57
2018-05-11T05:12:26.504Z,77.57
2018-05-11T05:13:26.456Z,77.57
2018-05-11T05:14:26.445Z,77.63
2018-05-11T05:15:26.446Z,78.20
2018-05-11T05:16:26.441Z,78.30
2018-05-11T05:17:26.437Z,78.34
2018-05-11T05:18:26.441Z,78.53
2018-05-11T05:19:26.441Z,78.28
2018-05-11T05:20:26.436Z,78.03
2018-05-11T05:21:26.434Z,76.69
2018-05-11T05:22:26.428Z,76.69
2018-05-11T05:23:26.426Z,76.02
2018-05-11T05:24:26.429Z,75.10
2018-05-11T05:25:26.426Z,74.27
2018-05-11T05:26:26.420Z,73.93
2018-05-11T05:27:26.420Z,72.53
2018-05-11T05:28:26.417Z,71.41
2018-05-11T05:29:26.474Z,70.45
2018-05-11T05:30:26.420Z,70.03
2018-05-11T05:31:26.420Z,69.97
2018-05-11T05:32:26.418Z,69.40
2018-05-11T05:33:26.418Z,69.34
2018-05-11T05:34:26.412Z,68.02
2018-05-11T05:35:26.413Z,67.64
2018-05-11T05:36:26.412Z,67.25
2018-05-11T05:37:26.411Z,66.49
2018-05-11T05:38:26.416Z,66.58
2018-05-11T05:39:26.420Z,66.00
2018-05-11T05:40:26.413Z,66.00
2018-05-11T05:41:26.411Z,65.23
2018-05-11T05:42:26.417Z,65.49
2018-05-11T05:43:26.418Z,65.36
2018-05-11T05:44:26.419Z,67.09
2018-05-11T05:45:26.417Z,66.90
2018-05-11T05:46:26.423Z,67.25
2018-05-11T05:47:26.415Z,66.61
2018-05-11T05:48:26.416Z,65.40
2018-05-11T05:49:26.420Z,64.18
2018-05-11T05:50:26.422Z,63.34
2018-05-11T05:51:26.423Z,62.38
2018-05-11T05:52:26.424Z,61.36
2018-05-11T05:53:26.427Z,62.06
2018-05-11T05:54:26.425Z,61.58
2018-05-11T05:55:26.425Z,61.36
2018-05-11T05:56:26.436Z,62.32
2018-05-11T05:57:26.431Z,61.87
2018-05-11T05:58:26.494Z,61.80
2018-05-11T05:59:26.431Z,61.32
2018-05-11T06:00:26.439Z,59.84
2018-05-11T06:01:26.434Z,60.58
2018-05-11T06:02:26.513Z,60.20
2018-05-11T06:03:26.444Z,60.84
2018-05-11T06:04:26.447Z,61.10
2018-05-11T06:05:26.449Z,62.32
2018-05-11T06:06:26.448Z,63.25
2018-05-11T06:07:26.451Z,64.02
2018-05-11T06:08:26.455Z,65.46
2018-05-11T06:09:26.456Z,65.27
2018-05-11T06:10:26.463Z,65.84
2018-05-11T06:11:26.468Z,66.33
2018-05-11T06:12:26.465Z,66.39
2018-05-11T06:13:26.466Z,66.30
2018-05-11T06:14:26.475Z,66.49
2018-05-11T06:15:26.477Z,67.35
2018-05-11T06:16:26.479Z,67.32
2018-05-11T06:17:26.480Z,67.03
2018-05-11T06:18:26.479Z,67.96
2018-05-11T06:19:26.481Z,68.02
2018-05-11T06:20:26.483Z,68.53
2018-05-11T06:21:26.485Z,69.78
2018-05-11T06:22:26.491Z,69.59
2018-05-11T06:23:26.499Z,69.43
2018-05-11T06:24:26.504Z,69.18
2018-05-11T06:25:26.498Z,68.70
2018-05-11T06:26:26.495Z,67.93
2018-05-11T06:27:26.497Z,67.45
2018-05-11T06:28:26.504Z,67.77
2018-05-11T06:29:26.507Z,67.51
2018-05-11T06:30:26.503Z,65.81
2018-05-11T06:31:26.506Z,65.05
2018-05-11T06:32:26.511Z,64.34
2018-05-11T06:33:26.508Z,62.66
2018-05-11T06:34:26.551Z,61.44
2018-05-11T06:35:26.518Z,60.19
2018-05-11T06:36:26.526Z,59.93
2018-05-11T06:37:26.523Z,58.29
2018-05-11T06:38:26.525Z,57.75
2018-05-11T06:39:26.526Z,58.40
2018-05-11T06:40:26.554Z,59.33
2018-05-11T06:41:26.533Z,60.20
2018-05-11T06:42:26.542Z,60.13
2018-05-11T06:43:26.545Z,59.72
2018-05-11T06:44:26.550Z,61.07
2018-05-11T06:45:26.548Z,60.94
2018-05-11T06:46:26.558Z,61.42
2018-05-11T06:47:26.562Z,61.25
2018-05-11T06:48:26.568Z,61.35
2018-05-11T06:49:26.572Z,60.71
2018-05-11T06:50:26.572Z,60.28
2018-05-11T06:51:26.576Z,59.58
2018-05-11T06:52:26.581Z,57.97
2018-05-11T06:53:26.585Z,57.52
2018-05-11T06:54:26.594Z,57.14
2018-05-11T06:55:26.602Z,57.09
2018-05-11T06:56:26.605Z,55.87
2018-05-11T06:57:26.610Z,54.14
2018-05-11T06:58:26.612Z,55.63
2018-05-11T06:59:26.618Z,56.82
2018-05-11T07:00:26.628Z,58.40
2018-05-11T07:01:26.689Z,60.14
2018-05-11T07:02:26.634Z,60.91
2018-05-11T07:03:26.641Z,61.25
2018-05-11T07:04:26.647Z,60.32
2018-05-11T07:05:26.658Z,60.68
2018-05-11T07:06:26.664Z,58.54
2018-05-11T07:07:26.670Z,56.47
2018-05-11T07:08:26.682Z,54.37
2018-05-11T07:09:26.681Z,52.73
2018-05-11T07:10:26.682Z,52.22
2018-05-11T07:11:26.689Z,52.39
2018-05-11T07:12:26.695Z,52.02
2018-05-11T07:13:26.701Z,52.00
2018-05-11T07:14:26.713Z,50.34
2018-05-11T07:15:26.719Z,48.83
2018-05-11T07:16:26.723Z,47.23
2018-05-11T07:17:26.728Z,45.31
2018-05-11T07:18:26.740Z,44.59
2018-05-11T07:19:26.766Z,46.05
2018-05-11T07:20:26.756Z,47.77
2018-05-11T07:21:26.766Z,48.39
2018-05-11T07:22:26.765Z,49.00
2018-05-11T07:23:26.777Z,47.89
2018-05-11T07:24:26.782Z,48.37
2018-05-11T07:25:26.789Z,49.15
2018-05-11T07:26:26.802Z,48.39
2018-05-11T07:27:26.811Z,47.96
2018-05-11T07:28:26.819Z,47.02
2018-05-11T07:29:26.827Z,45.83
2018-05-11T07:30:26.831Z,46.29
2018-05-11T07:31:26.840Z,46.66
2018-05-11T07:32:26.853Z,47.74
2018-05-11T07:33:26.863Z,49.22
2018-05-11T07:34:26.866Z,51.10
2018-05-11T07:35:26.875Z,52.40
2018-05-11T07:36:26.886Z,52.48
2018-05-11T07:37:26.896Z,51.42
2018-05-11T07:38:26.907Z,51.29
2018-05-11T07:39:26.913Z,52.35
2018-05-11T07:40:26.920Z,52.81
2018-05-11T07:41:26.925Z,54.16
2018-05-11T07:42:26.939Z,54.32
2018-05-11T07:43:27.109Z,55.35
2018-05-11T07:44:26.957Z,56.90
2018-05-11T07:45:26.960Z,57.86
2018-05-11T07:46:26.964Z,58.44
2018-05-11T07:47:26.975Z,58.34
2018-05-11T07:48:26.981Z,59.30
2018-05-11T07:49:26.989Z,59.40
2018-05-11T07:50:26.990Z,59.40
2018-05-11T07:51:26.998Z,59.49
2018-05-11T07:52:27.002Z,59.20
2018-05-11T07:53:27.010Z,59.65
2018-05-11T07:54:27.019Z,59.45
2018-05-11T07:55:27.025Z,58.62
2018-05-11T07:56:27.029Z,57.53
2018-05-11T07:57:27.035Z,57.53
2018-05-11T07:58:27.036Z,58.27
2018-05-11T07:59:27.042Z,57.98
2018-05-11T08:00:27.046Z,58.20
2018-05-11T08:01:27.050Z,56.72
2018-05-11T08:02:27.060Z,57.14
2018-05-11T08:03:27.067Z,57.21
2018-05-11T08:04:27.071Z,57.50
2018-05-11T08:05:27.072Z,57.76
2018-05-11T08:06:27.081Z,58.63
2018-05-11T08:07:27.086Z,58.05
2018-05-11T08:08:27.095Z,59.30
2018-05-11T08:09:27.098Z,58.59
2018-05-11T08:10:27.098Z,56.94
2018-05-11T08:11:27.103Z,54.73
2018-05-11T08:12:27.110Z,52.46
2018-05-11T08:13:27.113Z,51.08
2018-05-11T08:14:27.247Z,51.10
2018-05-11T08:15:27.130Z,51.27
2018-05-11T08:16:27.138Z,51.53
2018-05-11T08:17:27.142Z,52.22
2018-05-11T08:18:27.143Z,50.79
2018-05-11T08:19:27.150Z,47.42
2018-05-11T08:20:27.161Z,45.04
2018-05-11T08:21:27.281Z,43.79
2018-05-11T08:22:27.172Z,44.70
2018-05-11T08:23:27.181Z,46.27
2018-05-11T08:24:27.188Z,47.99
2018-05-11T08:25:27.195Z,49.00
2018-05-11T08:26:27.207Z,50.26
2018-05-11T08:27:27.215Z,50.71
2018-05-11T08:28:27.223Z,50.35
2018-05-11T08:29:27.232Z,50.50
2018-05-11T08:30:27.232Z,49.15
2018-05-11T08:31:27.240Z,48.74
2018-05-11T08:32:27.252Z,49.60
2018-05-11T08:33:27.255Z,49.32
2018-05-11T08:34:27.270Z,49.73
2018-05-11T08:35:27.275Z,49.54
2018-05-11T08:36:27.280Z,49.24
2018-05-11T08:37:27.286Z,49.22
2018-05-11T08:38:27.298Z,48.97
2018-05-11T08:39:27.306Z,49.65
2018-05-11T08:40:27.315Z,50.54
2018-05-11T08:41:27.321Z,51.22
2018-05-11T08:42:27.325Z,51.78
2018-05-11T08:43:27.333Z,50.33
2018-05-11T08:44:27.338Z,48.76
2018-05-11T08:45:27.343Z,46.42
2018-05-11T08:46:27.398Z,43.85
2018-05-11T08:47:27.364Z,42.25
2018-05-11T08:48:27.374Z,42.03
2018-05-11T08:49:27.381Z,42.25
2018-05-11T08:50:27.383Z,41.74
2018-05-11T08:51:27.393Z,41.67
2018-05-11T08:52:27.421Z,41.74
2018-05-11T08:53:27.416Z,41.94
2018-05-11T08:54:27.420Z,42.30
2018-05-11T08:55:27.431Z,43.44
2018-05-11T08:56:27.441Z,45.01
2018-05-11T08:57:27.450Z,46.25
2018-05-11T08:58:27.466Z,46.34
2018-05-11T08:59:27.476Z,46.24
2018-05-11T09:00:27.487Z,44.75
2018-05-11T09:01:27.495Z,43.21
2018-05-11T09:02:27.503Z,41.28
2018-05-11T09:03:27.514Z,39.45
2018-05-11T09:04:27.525Z,38.56
2018-05-11T09:05:27.536Z,38.20
2018-05-11T09:06:27.554Z,37.33
2018-05-11T09:07:27.566Z,37.43
2018-05-11T09:08:27.573Z,36.58
2018-05-11T09:09:27.584Z,36.14
2018-05-11T09:10:27.604Z,36.51
2018-05-11T09:11:27.616Z,36.88
2018-05-11T09:12:27.630Z,36.51
2018-05-11T09:13:27.642Z,37.06
2018-05-11T09:14:27.652Z,38.06
2018-05-11T09:15:27.665Z,38.87
2018-05-11T09:16:27.679Z,40.59
2018-05-11T09:17:27.692Z,42.05
2018-05-11T09:18:27.711Z,42.80
2018-05-11T09:19:27.724Z,43.50
2018-05-11T09:20:27.739Z,43.72
2018-05-11T09:21:27.754Z,43.44
2018-05-11T09:22:27.760Z,41.65
2018-05-11T09:23:27.772Z,40.06
2018-05-11T09:24:27.791Z,40.01
2018-05-11T09:25:27.802Z,40.77
2018-05-11T09:26:27.810Z,41.33
2018-05-11T09:27:27.823Z,41.97
2018-05-11T09:28:27.838Z,42.75
2018-05-11T09:29:27.847Z,43.10
2018-05-11T09:30:27.863Z,42.89
2018-05-11T09:31:27.876Z,42.71
2018-05-11T09:32:27.887Z,41.96
2018-05-11T09:33:27.899Z,41.30
2018-05-11T09:34:27.908Z,41.18
2018-05-11T09:35:27.920Z,40.34
2018-05-11T09:36:27.933Z,39.88
2018-05-11T09:37:27.952Z,38.71
2018-05-11T09:38:27.962Z,38.77
2018-05-11T09:39:28.025Z,37.13
2018-05-11T09:40:27.985Z,35.86
2018-05-11T09:41:27.997Z,36.04
2018-05-11T09:42:28.017Z,37.96
2018-05-11T09:43:28.032Z,38.39
2018-05-11T09:44:28.044Z,40.58
2018-05-11T09:45:28.056Z,41.93
2018-05-11T09:46:28.064Z,43.00
2018-05-11T09:47:28.077Z,43.77
2018-05-11T09:48:28.090Z,43.33
2018-05-11T09:49:28.143Z,43.30
2018-05-11T09:50:28.120Z,42.77
2018-05-11T09:51:28.132Z,42.92
2018-05-11T09:52:28.146Z,43.31
2018-05-11T09:53:28.241Z,43.27
2018-05-11T09:54:28.161Z,44.53
2018-05-11T09:55:28.173Z,46.15
2018-05-11T09:56:28.188Z,47.79
2018-05-11T09:57:28.199Z,46.36
2018-05-11T09:58:28.206Z,44.96
2018-05-11T09:59:28.215Z,43.47
2018-05-11T10:00:28.230Z,42.56
2018-05-11T10:01:28.244Z,41.24
2018-05-11T10:02:28.252Z,39.10
2018-05-11T10:03:28.265Z,38.24
2018-05-11T10:04:28.356Z,38.11
2018-05-11T10:05:28.287Z,38.07
2018-05-11T10:06:28.294Z,38.20
2018-05-11T10:07:28.306Z,36.88
2018-05-11T10:08:28.322Z,37.10
2018-05-11T10:09:28.332Z,36.24
2018-05-11T10:10:28.349Z,35.71
2018-05-11T10:11:28.361Z,35.85
2018-05-11T10:12:28.369Z,35.30
2018-05-11T10:13:28.383Z,34.63
2018-05-11T10:14:28.401Z,34.52
2018-05-11T10:15:28.415Z,34.40
2018-05-11T10:16:28.432Z,35.33
2018-05-11T10:17:28.444Z,35.94
2018-05-11T10:18:28.453Z,36.27
2018-05-11T10:19:28.467Z,35.72
2018-05-11T10:20:28.483Z,34.11
2018-05-11T10:21:28.497Z,34.29
2018-05-11T10:22:28.516Z,34.94
2018-05-11T10:23:28.535Z,35.05
2018-05-11T10:24:28.547Z,35.49
2018-05-11T10:25:28.560Z,35.33
2018-05-11T10:26:28.571Z,34.50
2018-05-11T10:27:28.591Z,33.48
2018-05-11T10:28:28.607Z,31.65
2018-05-11T10:29:28.626Z,30.96
2018-05-11T10:30:28.636Z,30.80
2018-05-11T10:31:28.648Z,31.90
2018-05-11T10:32:28.665Z,32.79
2018-05-11T10:33:28.684Z,34.69
2018-05-11T10:34:28.780Z,36.00
2018-05-11T10:35:28.716Z,37.01
2018-05-11T10:36:28.730Z,38.66
2018-05-11T10:37:28.742Z,39.80
2018-05-11T10:38:28.752Z,40.94
2018-05-11T10:39:28.765Z,42.14
2018-05-11T10:40:28.777Z,41.78
2018-05-11T10:41:28.790Z,41.14
2018-05-11T10:42:28.824Z,40.79
2018-05-11T10:43:28.821Z,39.78
2018-05-11T10:44:28.827Z,38.79
2018-05-11T10:45:28.836Z,38.37
2018-05-11T10:46:28.854Z,38.29
2018-05-11T10:47:28.865Z,38.11
2018-05-11T10:48:28.930Z,37.45
2018-05-11T10:49:28.888Z,36.33
2018-05-11T10:50:28.896Z,35.55
2018-05-11T10:51:28.909Z,35.46
2018-05-11T10:52:28.921Z,35.11
2018-05-11T10:53:28.933Z,35.83
2018-05-11T10:54:28.950Z,35.66
2018-05-11T10:55:28.963Z,36.52
2018-05-11T10:56:28.977Z,37.10
2018-05-11T10:57:28.988Z,37.70
2018-05-11T10:58:29.000Z,37.34
2018-05-11T10:59:29.011Z,37.57
2018-05-11T11:00:29.029Z,38.73
2018-05-11T11:01:29.043Z,39.59
2018-05-11T11:02:29.123Z,40.33
2018-05-11T11:03:29.063Z,40.73
2018-05-11T11:04:29.076Z,40.87
2018-05-11T11:05:29.088Z,39.76
2018-05-11T11:06:29.105Z,39.04
2018-05-11T11:07:29.120Z,37.95
2018-05-11T11:08:29.130Z,37.35
2018-05-11T11:09:29.141Z,37.18
2018-05-11T11:10:29.151Z,37.08
2018-05-11T11:11:29.163Z,36.47
2018-05-11T11:12:29.175Z,36.40
2018-05-11T11:13:29.194Z,36.91
2018-05-11T11:14:29.203Z,37.20
2018-05-11T11:15:29.217Z,36.87
2018-05-11T11:16:29.225Z,38.58
2018-05-11T11:17:29.236Z,39.28
2018-05-11T11:18:29.252Z,39.88
2018-05-11T11:19:29.263Z,39.59
2018-05-11T11:20:29.274Z,39.90
2018-05-11T11:21:29.285Z,39.47
2018-05-11T11:22:29.291Z,40.15
2018-05-11T11:23:29.311Z,40.71
2018-05-11T11:24:29.312Z,40.91
2018-05-11T11:25:29.324Z,41.78
2018-05-11T11:26:29.336Z,42.19
2018-05-11T11:27:29.346Z,41.89
2018-05-11T11:28:29.358Z,41.70
2018-05-11T11:29:29.367Z,42.26
2018-05-11T11:30:29.369Z,42.57
2018-05-11T11:31:29.381Z,42.86
2018-05-11T11:32:29.393Z,42.72
2018-05-11T11:33:29.400Z,42.68
2018-05-11T11:34:29.469Z,42.74
2018-05-11T11:35:29.422Z,42.99
2018-05-11T11:36:29.420Z,44.73
2018-05-11T11:37:29.427Z,45.01
2018-05-11T11:38:29.440Z,45.40
2018-05-11T11:39:29.446Z,46.08
2018-05-11T11:40:29.473Z,46.66
2018-05-11T11:41:29.460Z,45.89
2018-05-11T11:42:29.465Z,46.10
2018-05-11T11:43:29.470Z,46.10
2018-05-11T11:44:29.487Z,46.12
2018-05-11T11:45:29.483Z,46.73
2018-05-11T11:46:29.494Z,46.25
2018-05-11T11:47:29.512Z,45.40
2018-05-11T11:48:29.502Z,46.08
2018-05-11T11:49:29.507Z,46.00
2018-05-11T11:50:29.519Z,45.33
2018-05-11T11:51:29.524Z,44.84
2018-05-11T11:52:29.531Z,44.94
2018-05-11T11:53:29.535Z,44.43
2018-05-11T11:54:29.538Z,44.82
2018-05-11T11:55:29.543Z,45.21
2018-05-11T11:56:29.646Z,45.09
2018-05-11T11:57:29.552Z,45.65
2018-05-11T11:58:29.563Z,46.03
2018-05-11T11:59:29.568Z,46.54
2018-05-11T12:00:29.574Z,47.02
2018-05-11T12:01:29.580Z,47.12
2018-05-11T12:02:29.579Z,47.91
2018-05-11T12:03:29.584Z,47.07
2018-05-11T12:04:29.594Z,46.08
2018-05-11T12:05:29.599Z,46.08
2018-05-11T12:06:29.597Z,45.89
2018-05-11T12:07:29.602Z,46.00
2018-05-11T12:08:29.607Z,46.08
2018-05-11T12:09:29.611Z,46.10
2018-05-11T12:10:29.620Z,45.42
2018-05-11T12:11:29.626Z,46.20
2018-05-11T12:12:29.630Z,45.42
2018-05-11T12:13:29.634Z,45.04
2018-05-11T12:14:29.634Z,45.14
2018-05-11T12:15:29.690Z,45.52
2018-05-11T12:16:29.645Z,45.31
2018-05-11T12:17:29.649Z,45.21
2018-05-11T12:18:29.707Z,45.94
2018-05-11T12:19:29.663Z,46.23
2018-05-11T12:20:29.663Z,46.59
2018-05-11T12:21:29.668Z,47.82
2018-05-11T12:22:29.677Z,48.30
2018-05-11T12:23:29.681Z,48.40
2018-05-11T12:24:29.684Z,48.69
2018-05-11T12:25:29.688Z,48.97
2018-05-11T12:26:29.688Z,49.10
2018-05-11T12:27:29.692Z,48.90
2018-05-11T12:28:29.696Z,49.02
2018-05-11T12:29:29.699Z,48.83
2018-05-11T12:30:29.708Z,48.28
2018-05-11T12:31:29.713Z,48.76
2018-05-11T12:32:29.717Z,48.16
2018-05-11T12:33:29.720Z,47.87
2018-05-11T12:34:29.718Z,47.67
2018-05-11T12:35:29.723Z,47.89
2018-05-11T12:36:29.732Z,47.81
2018-05-11T12:37:29.734Z,45.67
2018-05-11T12:38:29.733Z,45.67
2018-05-11T12:39:29.738Z,44.80
2018-05-11T12:40:29.743Z,44.49
2018-05-11T12:41:29.744Z,44.87
2018-05-11T12:42:29.752Z,44.68
2018-05-11T12:43:29.756Z,44.87
2018-05-11T12:44:29.759Z,44.87
2018-05-11T12:45:29.763Z,44.78
2018-05-11T12:46:29.766Z,44.78
2018-05-11T12:47:29.766Z,44.59
2018-05-11T12:48:29.769Z,44.49
2018-05-11T12:49:29.772Z,44.87
2018-05-11T12:50:29.780Z,45.00
2018-05-11T12:51:29.784Z,44.70
2018-05-11T12:52:29.783Z,44.51